Time;durP1;ratioP1;P1;durP2;ratioP2;P2;SDS_P1;SDS_P2;PMS_P1;PMS_P2;Temp;Humidity;BMP_temperature;BMP_pressure;BME280_temperature;BME280_humidity;BME280_pressure;Samples;Min_cycle;Max_cycle;Signal;HPM_P1;HPM_P2
2023/06/24 06:08:31;;;;;;;1.63;1.13;;;31.20;92.40;;;;;;2995221;23;20232;-73
2023/06/24 06:10:58;;;;;;;1.40;1.20;;;31.50;92.40;;;;;;4954327;29;20243;-73
2023/06/24 06:13:25;;;;;;;1.85;1.20;;;31.20;92.90;;;;;;4955112;29;20218;-73
2023/06/24 06:15:52;;;;;;;1.42;1.13;;;31.70;92.40;;;;;;4953910;29;20227;-73
2023/06/24 06:18:19;;;;;;;2.25;1.10;;;32.10;92.30;;;;;;4939479;29;20211;-73
2023/06/24 06:20:46;;;;;;;1.45;1.10;;;32.70;91.70;;;;;;4947232;29;20296;-74
2023/06/24 06:23:12;;;;;;;3.15;1.10;;;32.60;90.90;;;;;;4944941;29;20587;-74
2023/06/24 06:25:41;;;;;;;2.10;1.17;;;32.50;91.60;;;;;;4949398;29;20239;-74
2023/06/24 06:28:07;;;;;;;1.55;1.10;;;32.40;91.10;;;;;;4943764;29;20287;-75
2023/06/24 06:30:34;;;;;;;1.42;1.02;;;32.60;91.20;;;;;;4943632;29;20729;-74
2023/06/24 06:33:01;;;;;;;1.67;1.00;;;32.00;90.80;;;;;;4951980;29;20200;-74
2023/06/24 06:35:28;;;;;;;1.15;0.98;;;32.10;90.40;;;;;;4943868;29;20228;-74
2023/06/24 06:37:55;;;;;;;1.85;1.40;;;31.60;91.10;;;;;;4941102;29;20219;-74
2023/06/24 06:40:22;;;;;;;1.02;0.88;;;31.80;90.80;;;;;;4951912;29;20220;-74
2023/06/24 06:42:50;;;;;;;2.15;1.45;;;32.50;90.70;;;;;;4953174;29;20208;-74
2023/06/24 06:45:17;;;;;;;1.77;1.10;;;32.30;89.60;;;;;;4955202;29;20230;-74
2023/06/24 06:47:44;;;;;;;2.92;1.25;;;32.60;90.70;;;;;;4957219;29;20211;-74
2023/06/24 06:50:11;;;;;;;1.85;1.30;;;32.90;89.80;;;;;;4957896;29;20236;-74
2023/06/24 06:52:38;;;;;;;2.20;1.00;;;32.00;90.70;;;;;;4957412;29;20671;-74
2023/06/24 06:55:06;;;;;;;1.95;1.10;;;32.30;89.50;;;;;;4957906;29;20232;-74
2023/06/24 06:57:32;;;;;;;1.55;1.08;;;32.20;90.40;;;;;;4957721;29;20212;-74
2023/06/24 07:00:01;;;;;;;1.02;0.90;;;31.70;90.70;;;;;;4957620;29;20578;-74
2023/06/24 07:02:28;;;;;;;1.13;1.00;;;31.70;90.50;;;;;;4957429;29;20238;-74
2023/06/24 07:04:54;;;;;;;3.17;0.98;;;31.60;90.40;;;;;;4957259;29;20566;-74
2023/06/24 07:07:21;;;;;;;3.30;1.25;;;31.70;90.50;;;;;;4957717;29;20219;-74
2023/06/24 07:09:48;;;;;;;1.83;1.20;;;31.80;89.90;;;;;;4956202;29;20586;-74
2023/06/24 07:12:15;;;;;;;1.17;0.98;;;31.40;90.30;;;;;;4956422;29;20307;-74
2023/06/24 07:14:41;;;;;;;3.65;1.08;;;31.20;90.40;;;;;;4955922;29;20243;-74
2023/06/24 07:17:10;;;;;;;2.22;1.00;;;31.00;91.00;;;;;;4956424;29;20234;-73
2023/06/24 07:19:36;;;;;;;1.45;1.00;;;30.80;91.50;;;;;;4956434;29;20215;-73
2023/06/24 07:22:03;;;;;;;1.60;0.90;;;30.70;90.80;;;;;;4956339;29;20667;-74
2023/06/24 07:24:30;;;;;;;1.13;0.90;;;31.20;90.70;;;;;;4956244;29;20212;-73
2023/06/24 07:26:57;;;;;;;1.10;0.90;;;31.00;90.70;;;;;;4956215;29;20314;-73
2023/06/24 07:29:24;;;;;;;1.75;1.10;;;31.30;90.40;;;;;;4955976;29;20665;-73
2023/06/24 07:31:51;;;;;;;2.08;1.20;;;31.60;90.10;;;;;;4956332;29;20298;-73
2023/06/24 07:34:19;;;;;;;1.67;1.00;;;31.50;89.80;;;;;;4956121;29;20212;-74
2023/06/24 07:36:46;;;;;;;1.80;1.08;;;31.70;89.70;;;;;;4956133;29;20239;-73
2023/06/24 07:39:12;;;;;;;1.60;1.00;;;31.70;89.10;;;;;;4955794;28;20705;-74
2023/06/24 07:41:40;;;;;;;1.38;1.00;;;31.70;90.10;;;;;;4955995;29;20204;-73
2023/06/24 07:44:07;;;;;;;2.42;1.05;;;31.10;90.20;;;;;;4955793;29;20220;-73
2023/06/24 07:46:33;;;;;;;1.70;1.00;;;31.30;89.30;;;;;;4956060;29;20319;-73
2023/06/24 07:49:00;;;;;;;1.75;1.30;;;31.30;89.70;;;;;;4955716;29;20223;-73
2023/06/24 07:51:28;;;;;;;3.55;1.00;;;31.70;87.70;;;;;;4955606;29;20239;-73
2023/06/24 07:53:55;;;;;;;1.77;1.08;;;31.70;89.30;;;;;;4955772;29;20211;-73
2023/06/24 07:56:22;;;;;;;2.03;1.23;;;31.80;86.40;;;;;;4955488;29;20319;-74
2023/06/24 07:58:49;;;;;;;1.13;1.00;;;32.10;88.30;;;;;;4955846;29;20294;-73
2023/06/24 08:01:15;;;;;;;1.83;1.30;;;31.20;87.90;;;;;;4955856;29;20219;-73
2023/06/24 08:03:42;;;;;;;1.08;0.90;;;31.30;88.80;;;;;;4955590;29;20666;-73
2023/06/24 08:06:09;;;;;;;1.63;0.85;;;31.80;88.70;;;;;;4955878;29;20228;-73
2023/06/24 08:08:37;;;;;;;2.85;1.20;;;32.00;86.00;;;;;;4918520;29;1103427;-73
2023/06/24 08:11:04;;;;;;;1.52;0.93;;;31.50;88.20;;;;;;4956280;29;20272;-73
2023/06/24 08:13:31;;;;;;;1.52;1.27;;;31.50;88.90;;;;;;4956542;29;20302;-73
2023/06/24 08:15:58;;;;;;;1.30;0.93;;;31.70;88.10;;;;;;4956652;29;20574;-73
2023/06/24 08:18:24;;;;;;;3.17;0.80;;;32.10;87.50;;;;;;4956448;29;20226;-73
2023/06/24 08:20:51;;;;;;;1.90;0.93;;;32.10;87.50;;;;;;4956370;29;20214;-74
2023/06/24 08:23:18;;;;;;;1.40;0.90;;;32.40;87.00;;;;;;4956360;29;20212;-74
2023/06/24 08:25:46;;;;;;;2.28;1.00;;;32.50;87.30;;;;;;4956023;29;20740;-74
2023/06/24 08:28:13;;;;;;;1.58;1.00;;;32.70;87.60;;;;;;4956563;29;20303;-73
2023/06/24 08:30:40;;;;;;;2.30;1.30;;;32.40;87.00;;;;;;4956196;29;20238;-74
2023/06/24 08:33:07;;;;;;;1.77;1.00;;;32.80;85.60;;;;;;4956426;29;20208;-74
2023/06/24 08:35:33;;;;;;;1.20;0.98;;;32.80;85.10;;;;;;4955764;29;20231;-73
2023/06/24 08:38:00;;;;;;;1.60;1.27;;;32.20;87.30;;;;;;4955773;29;20548;-74
2023/06/24 08:40:29;;;;;;;1.88;1.00;;;31.90;88.10;;;;;;4956094;29;20208;-73
2023/06/24 08:42:58;;;;;;;1.88;1.05;;;31.30;87.30;;;;;;4956176;29;20219;-74
2023/06/24 08:45:25;;;;;;;4.82;0.90;;;31.50;87.80;;;;;;4956262;29;20235;-74
2023/06/24 08:47:55;;;;;;;1.83;0.93;;;31.00;89.20;;;;;;4956094;29;20631;-74
2023/06/24 08:50:26;;;;;;;3.20;0.90;;;31.10;88.10;;;;;;4955534;29;20239;-73
2023/06/24 08:52:53;;;;;;;1.58;1.02;;;31.20;85.70;;;;;;4954930;29;20212;-74
2023/06/24 08:55:24;;;;;;;1.20;0.93;;;31.40;86.70;;;;;;4955684;29;20238;-74
2023/06/24 08:57:51;;;;;;;1.67;1.00;;;31.60;86.60;;;;;;4955772;29;20583;-73
2023/06/24 09:00:20;;;;;;;1.85;0.90;;;31.80;85.20;;;;;;4955381;29;20216;-74
2023/06/24 09:02:46;;;;;;;0.82;0.70;;;31.80;84.70;;;;;;4955329;29;20203;-74
2023/06/24 09:05:13;;;;;;;1.17;0.80;;;31.80;85.00;;;;;;4955374;29;20231;-74
2023/06/24 09:07:40;;;;;;;0.93;0.82;;;31.70;82.90;;;;;;4955620;29;20291;-74
2023/06/24 09:10:07;;;;;;;1.13;0.90;;;31.30;84.60;;;;;;4954972;29;20218;-74
2023/06/24 09:12:35;;;;;;;1.40;0.70;;;31.90;85.50;;;;;;4955714;29;20222;-74
2023/06/24 09:15:04;;;;;;;1.17;0.82;;;32.00;79.60;;;;;;4955683;29;20222;-74
2023/06/24 09:17:32;;;;;;;3.90;0.90;;;32.10;79.70;;;;;;4955648;29;20210;-74
2023/06/24 09:20:05;;;;;;;1.15;0.88;;;32.30;82.70;;;;;;4955351;29;20208;-74
2023/06/24 09:22:32;;;;;;;1.75;0.90;;;32.10;84.30;;;;;;4955256;29;20639;-74
2023/06/24 09:25:02;;;;;;;1.40;0.90;;;31.80;85.40;;;;;;4955255;29;20212;-74
2023/06/24 09:27:32;;;;;;;1.13;0.80;;;31.90;84.90;;;;;;4954687;29;20298;-73
2023/06/24 09:29:59;;;;;;;1.83;1.00;;;31.60;79.90;;;;;;4955260;29;20212;-73
2023/06/24 09:32:30;;;;;;;1.40;1.08;;;31.30;83.60;;;;;;4955065;29;20278;-74
2023/06/24 09:34:58;;;;;;;3.15;1.17;;;31.40;84.70;;;;;;4955184;29;20208;-74
2023/06/24 09:37:30;;;;;;;1.70;1.00;;;31.40;87.30;;;;;;4954956;29;20204;-74
2023/06/24 09:39:57;;;;;;;1.25;0.95;;;31.00;85.90;;;;;;4954975;29;20235;-74
2023/06/24 09:42:24;;;;;;;1.10;0.88;;;31.00;87.30;;;;;;4954922;29;20659;-74
2023/06/24 09:44:55;;;;;;;1.25;0.82;;;31.50;88.10;;;;;;4954576;29;20218;-74
2023/06/24 09:47:24;;;;;;;2.08;1.20;;;31.30;83.90;;;;;;4954992;29;20208;-74
2023/06/24 09:49:51;;;;;;;1.50;1.00;;;30.90;84.40;;;;;;4955056;29;20207;-74
2023/06/24 09:52:21;;;;;;;1.77;1.00;;;30.80;86.60;;;;;;4954861;29;20236;-73
2023/06/24 09:54:51;;;;;;;1.25;0.98;;;30.20;87.80;;;;;;4954547;29;20219;-74
2023/06/24 09:57:22;;;;;;;1.73;1.00;;;30.20;88.70;;;;;;4954289;29;20210;-73
2023/06/24 09:59:50;;;;;;;1.40;1.00;;;29.90;86.70;;;;;;4954755;29;20235;-74
2023/06/24 10:02:18;;;;;;;1.65;1.00;;;29.50;88.50;;;;;;4954418;28;20239;-74
2023/06/24 10:04:46;;;;;;;2.38;1.00;;;29.60;87.70;;;;;;4954553;29;20518;-74
2023/06/24 10:07:14;;;;;;;6.00;3.08;;;29.60;89.00;;;;;;4954942;29;20299;-74
2023/06/24 10:09:42;;;;;;;9.60;6.22;;;29.70;89.50;;;;;;4954428;29;20216;-74
2023/06/24 10:12:10;;;;;;;1.00;0.80;;;29.90;90.00;;;;;;4954699;29;20241;-74
2023/06/24 10:14:37;;;;;;;1.60;1.17;;;29.60;86.40;;;;;;4954532;29;20215;-74
2023/06/24 10:17:05;;;;;;;9.15;5.85;;;29.10;86.90;;;;;;4954806;29;20231;-74
2023/06/24 10:19:39;;;;;;;2.15;1.38;;;28.70;90.90;;;;;;4954617;29;20208;-73
2023/06/24 10:22:09;;;;;;;3.60;1.63;;;28.70;90.20;;;;;;4954609;29;20208;-74
2023/06/24 10:24:39;;;;;;;3.28;1.10;;;28.30;91.00;;;;;;4954466;29;20323;-73
2023/06/24 10:27:09;;;;;;;1.10;0.70;;;28.10;88.50;;;;;;4954453;29;20228;-74
2023/06/24 10:29:38;;;;;;;2.40;1.67;;;28.00;88.50;;;;;;4954529;29;20208;-74
2023/06/24 10:32:06;;;;;;;1.40;1.15;;;27.70;89.10;;;;;;4954305;29;20714;-73
2023/06/24 10:34:41;;;;;;;2.55;1.48;;;27.60;90.20;;;;;;4954411;29;20210;-73
2023/06/24 10:37:13;;;;;;;1.63;0.90;;;27.70;89.10;;;;;;4954367;29;20228;-73
2023/06/24 10:39:45;;;;;;;1.30;1.02;;;27.80;90.40;;;;;;4954660;29;20215;-73
2023/06/24 10:42:34;;;;;;;1.77;1.10;;;27.70;88.90;;;;;;4954516;29;20208;-74
2023/06/24 10:45:03;;;;;;;1.75;0.90;;;27.70;89.60;;;;;;4954271;29;20208;-73
2023/06/24 10:47:30;;;;;;;1.10;0.90;;;27.40;88.60;;;;;;4954342;29;20247;-73
2023/06/24 10:49:57;;;;;;;3.33;1.00;;;27.50;91.00;;;;;;4954239;29;20309;-73
2023/06/24 10:52:24;;;;;;;1.48;1.00;;;27.70;90.40;;;;;;4954198;29;20232;-74
2023/06/24 10:54:53;;;;;;;1.00;0.88;;;27.70;88.70;;;;;;4953853;29;20219;-73
2023/06/24 10:57:24;;;;;;;1.48;1.05;;;27.70;89.20;;;;;;4954205;29;20208;-73
2023/06/24 10:59:54;;;;;;;2.85;0.80;;;27.70;90.10;;;;;;4953978;29;20212;-74
2023/06/24 11:02:22;;;;;;;1.60;0.82;;;27.70;90.60;;;;;;4953805;29;20770;-73
2023/06/24 11:04:50;;;;;;;1.40;1.05;;;27.90;89.90;;;;;;4953688;29;20218;-74
2023/06/24 11:07:19;;;;;;;2.88;1.23;;;28.10;89.00;;;;;;4953784;29;20215;-73
2023/06/24 11:09:50;;;;;;;3.22;1.00;;;28.10;90.40;;;;;;4953727;29;20671;-74
2023/06/24 11:12:17;;;;;;;2.97;1.20;;;28.10;90.20;;;;;;4953800;29;20256;-74
2023/06/24 11:14:44;;;;;;;1.33;0.90;;;28.10;90.80;;;;;;4954972;28;20682;-73
2023/06/24 11:17:13;;;;;;;2.78;0.90;;;28.00;88.30;;;;;;4957439;29;20276;-73
2023/06/24 11:19:40;;;;;;;1.85;1.00;;;28.00;90.70;;;;;;4957373;29;20623;-74
2023/06/24 11:22:08;;;;;;;1.85;0.90;;;28.00;86.10;;;;;;4957526;29;20310;-74
2023/06/24 11:24:35;;;;;;;1.45;1.00;;;28.20;89.70;;;;;;4957188;29;20208;-73
2023/06/24 11:27:05;;;;;;;2.55;1.10;;;28.10;89.60;;;;;;4957132;29;20737;-73
2023/06/24 11:29:33;;;;;;;3.45;1.10;;;28.10;88.00;;;;;;4957119;29;20226;-73
2023/06/24 11:32:00;;;;;;;1.50;1.10;;;28.00;91.30;;;;;;4957356;29;20232;-73
2023/06/24 11:34:28;;;;;;;1.00;0.85;;;27.90;90.50;;;;;;4957625;29;20211;-73
2023/06/24 11:36:55;;;;;;;2.25;1.00;;;28.00;90.20;;;;;;4957446;29;20335;-74
2023/06/24 11:39:23;;;;;;;1.27;0.70;;;28.10;89.80;;;;;;4957458;29;20552;-74
2023/06/24 11:41:50;;;;;;;1.45;1.10;;;27.90;87.60;;;;;;4957654;29;20299;-73
2023/06/24 11:44:19;;;;;;;1.42;0.82;;;27.90;88.60;;;;;;4957508;29;20212;-73
2023/06/24 11:46:46;;;;;;;1.25;1.00;;;27.80;85.20;;;;;;4956459;29;20564;-73
2023/06/24 11:49:14;;;;;;;2.47;0.70;;;27.70;84.10;;;;;;4957295;29;20208;-73
2023/06/24 11:51:48;;;;;;;1.20;0.98;;;27.70;86.80;;;;;;4957178;29;20709;-74
2023/06/24 11:54:16;;;;;;;1.25;1.00;;;27.80;85.30;;;;;;4957561;29;20208;-73
2023/06/24 11:56:44;;;;;;;1.33;0.95;;;27.90;87.90;;;;;;4957473;29;20239;-75
2023/06/24 11:59:18;;;;;;;1.95;0.95;;;27.70;85.80;;;;;;4953216;29;20570;-73
2023/06/24 12:01:45;;;;;;;1.42;1.20;;;27.60;89.80;;;;;;4955937;29;20211;-73
2023/06/24 12:04:13;;;;;;;1.70;1.02;;;27.80;88.60;;;;;;4946345;29;20200;-73
2023/06/24 12:06:41;;;;;;;1.88;1.13;;;27.90;85.20;;;;;;4957555;29;20669;-73
2023/06/24 12:09:08;;;;;;;1.60;0.88;;;27.90;87.50;;;;;;4955960;29;20227;-73
2023/06/24 12:11:35;;;;;;;3.53;1.52;;;27.90;85.00;;;;;;4956221;28;20804;-73
2023/06/24 12:14:02;;;;;;;1.60;1.17;;;28.00;84.20;;;;;;4956761;29;20207;-73
2023/06/24 12:16:29;;;;;;;1.48;0.95;;;28.00;85.50;;;;;;4949206;29;20224;-73
2023/06/24 12:18:56;;;;;;;2.17;1.17;;;27.90;81.30;;;;;;4951189;29;20218;-73
2023/06/24 12:21:23;;;;;;;1.60;0.90;;;27.90;85.00;;;;;;4956859;29;20218;-73
2023/06/24 12:23:51;;;;;;;1.85;1.02;;;28.00;86.10;;;;;;4943903;29;20213;-73
2023/06/24 12:26:18;;;;;;;1.27;0.93;;;28.00;85.10;;;;;;4936086;29;20233;-73
2023/06/24 12:28:45;;;;;;;1.27;1.00;;;28.10;87.60;;;;;;4949307;29;20557;-73
2023/06/24 12:31:12;;;;;;;1.63;1.05;;;28.20;80.90;;;;;;4956207;29;20564;-73
2023/06/24 12:33:39;;;;;;;1.33;0.80;;;28.30;77.10;;;;;;4955669;29;20556;-73
2023/06/24 12:36:06;;;;;;;2.28;1.00;;;28.20;80.80;;;;;;4956341;29;20224;-73
2023/06/24 12:38:33;;;;;;;2.53;1.10;;;28.20;82.70;;;;;;4955845;29;20212;-73
2023/06/24 12:41:01;;;;;;;1.70;1.00;;;28.20;83.30;;;;;;4956127;29;20208;-74
2023/06/24 12:43:29;;;;;;;2.95;1.10;;;28.00;81.00;;;;;;4943755;29;20244;-76
2023/06/24 12:45:56;;;;;;;1.80;1.00;;;27.90;85.10;;;;;;4935164;29;20231;-75
2023/06/24 12:48:23;;;;;;;1.52;0.90;;;28.00;87.70;;;;;;4944773;29;20219;-74
2023/06/24 12:50:52;;;;;;;0.88;0.80;;;28.00;87.20;;;;;;4954545;29;20299;-72
2023/06/24 12:53:19;;;;;;;1.73;1.10;;;28.00;87.20;;;;;;4946624;29;20711;-74
2023/06/24 12:55:46;;;;;;;1.98;0.90;;;28.10;87.70;;;;;;4938286;29;20230;-75
2023/06/24 12:58:19;;;;;;;1.55;1.20;;;28.20;86.80;;;;;;4954327;28;20210;-73
2023/06/24 13:00:46;;;;;;;1.17;0.90;;;28.30;84.10;;;;;;4954093;29;20212;-72
2023/06/24 13:03:13;;;;;;;2.65;1.10;;;28.30;84.70;;;;;;4948597;29;20209;-74
2023/06/24 13:05:40;;;;;;;1.85;1.30;;;28.30;82.00;;;;;;4934723;29;20662;-74
2023/06/24 13:08:07;;;;;;;1.08;0.90;;;28.30;82.90;;;;;;4942204;29;20639;-74
2023/06/24 13:10:33;;;;;;;1.48;1.15;;;28.00;83.60;;;;;;4954257;29;20216;-74
2023/06/24 13:13:00;;;;;;;1.40;1.00;;;27.90;83.30;;;;;;4953555;28;20654;-74
2023/06/24 13:15:29;;;;;;;2.45;1.05;;;28.00;84.50;;;;;;4954252;29;20228;-75
2023/06/24 13:17:56;;;;;;;2.83;1.08;;;28.10;85.40;;;;;;4953716;28;20214;-75
2023/06/24 13:20:22;;;;;;;1.55;0.98;;;28.10;86.80;;;;;;4953817;29;20243;-74
2023/06/24 13:22:49;;;;;;;2.40;0.80;;;28.10;88.20;;;;;;4953421;28;20203;-75
2023/06/24 13:25:16;;;;;;;1.50;0.98;;;28.10;85.00;;;;;;4953820;29;20323;-74
2023/06/24 13:27:43;;;;;;;1.38;1.00;;;28.10;89.30;;;;;;4953478;29;20316;-74
2023/06/24 13:30:11;;;;;;;1.35;1.00;;;28.10;86.00;;;;;;4954118;29;20237;-75
2023/06/24 13:32:39;;;;;;;2.13;1.08;;;28.20;84.90;;;;;;4953958;29;20326;-77
2023/06/24 13:35:07;;;;;;;2.10;1.10;;;28.10;88.20;;;;;;4953495;29;20354;-75
2023/06/24 13:37:34;;;;;;;2.55;1.35;;;27.90;84.70;;;;;;4952984;28;20214;-77
2023/06/24 13:40:01;;;;;;;2.40;1.60;;;27.90;87.60;;;;;;4953097;29;20290;-77
2023/06/24 13:42:28;;;;;;;1.80;1.02;;;28.00;89.70;;;;;;4953456;29;20287;-78
2023/06/24 13:44:55;;;;;;;1.33;1.00;;;27.90;83.10;;;;;;4953378;28;20208;-78
2023/06/24 13:47:22;;;;;;;1.30;1.02;;;27.80;82.00;;;;;;4953184;28;20218;-80
2023/06/24 13:49:51;;;;;;;1.90;0.95;;;27.90;83.20;;;;;;4953558;28;20218;-75
2023/06/24 13:52:17;;;;;;;1.50;1.00;;;28.10;82.00;;;;;;4953653;29;20786;-81
2023/06/24 13:54:45;;;;;;;1.80;1.20;;;28.10;86.00;;;;;;4938210;29;20664;-76
2023/06/24 13:57:12;;;;;;;1.15;1.00;;;28.20;88.70;;;;;;4934840;29;20204;-76
2023/06/24 13:59:39;;;;;;;2.33;1.00;;;28.20;87.20;;;;;;4953600;28;20685;-77
2023/06/24 14:02:07;;;;;;;1.70;1.08;;;28.10;86.80;;;;;;4953443;29;20761;-80
2023/06/24 14:04:34;;;;;;;1.27;1.10;;;28.00;86.80;;;;;;4940268;29;20273;-76
2023/06/24 14:07:04;;;;;;;1.70;1.27;;;28.10;84.90;;;;;;4942916;28;20235;-77
2023/06/24 14:09:31;;;;;;;1.55;1.20;;;28.00;84.60;;;;;;4940756;28;20244;-76
2023/06/24 14:11:58;;;;;;;1.63;1.10;;;28.10;85.00;;;;;;4935705;29;20232;-74
2023/06/24 14:14:25;;;;;;;1.85;1.08;;;28.10;85.10;;;;;;4935537;29;20205;-76
2023/06/24 14:16:52;;;;;;;1.60;1.00;;;28.30;88.20;;;;;;4936040;29;20233;-76
2023/06/24 14:19:19;;;;;;;1.52;1.20;;;28.30;87.90;;;;;;4954361;29;20216;-74
2023/06/24 14:21:45;;;;;;;1.60;1.10;;;28.30;85.80;;;;;;4954459;29;20207;-76
2023/06/24 14:24:14;;;;;;;2.47;1.60;;;28.30;87.30;;;;;;4954379;29;20200;-78
2023/06/24 14:26:40;;;;;;;1.60;0.98;;;28.30;89.40;;;;;;4954460;29;20322;-75
2023/06/24 14:29:07;;;;;;;1.73;1.10;;;28.30;85.00;;;;;;4953866;28;20211;-75
2023/06/24 14:31:34;;;;;;;2.42;1.40;;;28.50;86.80;;;;;;4954234;29;20215;-72
2023/06/24 14:34:01;;;;;;;1.58;1.10;;;28.50;86.60;;;;;;4954322;29;20235;-73
2023/06/24 14:36:28;;;;;;;1.60;1.15;;;28.50;85.40;;;;;;4954590;29;20228;-73
2023/06/24 14:38:54;;;;;;;1.35;1.10;;;28.40;84.40;;;;;;4954251;29;20537;-73
2023/06/24 14:41:22;;;;;;;2.17;1.30;;;28.40;86.90;;;;;;4954766;29;20215;-73
2023/06/24 14:43:49;;;;;;;1.40;1.10;;;28.50;83.90;;;;;;4954806;29;20294;-73
2023/06/24 14:46:16;;;;;;;1.60;1.30;;;28.50;85.50;;;;;;4954569;29;20223;-73
2023/06/24 14:48:43;;;;;;;1.95;1.30;;;28.30;85.00;;;;;;4954630;28;20307;-73
2023/06/24 14:51:10;;;;;;;1.45;1.13;;;28.20;85.60;;;;;;4958077;29;20216;-73
2023/06/24 14:53:36;;;;;;;1.50;1.00;;;28.30;86.70;;;;;;4958567;29;20236;-73
2023/06/24 14:56:03;;;;;;;3.30;1.23;;;28.30;87.70;;;;;;4958198;29;20334;-73
2023/06/24 14:58:32;;;;;;;1.50;1.20;;;28.40;88.80;;;;;;4957989;29;20701;-73
2023/06/24 15:00:58;;;;;;;2.55;1.35;;;28.40;86.50;;;;;;4958184;29;20208;-74
2023/06/24 15:03:25;;;;;;;2.22;1.23;;;28.40;84.50;;;;;;4957843;29;20766;-73
2023/06/24 15:05:52;;;;;;;2.60;1.10;;;28.10;83.40;;;;;;4958003;29;20243;-73
2023/06/24 15:08:19;;;;;;;2.20;1.20;;;28.00;83.80;;;;;;4958148;29;20303;-73
2023/06/24 15:10:46;;;;;;;1.35;1.00;;;27.90;85.10;;;;;;4958197;29;20605;-73
2023/06/24 15:13:12;;;;;;;1.80;1.00;;;27.90;85.40;;;;;;4957749;29;20240;-73
2023/06/24 15:15:41;;;;;;;1.40;1.13;;;28.00;85.50;;;;;;4957470;29;20228;-72
2023/06/24 15:18:07;;;;;;;1.70;1.20;;;28.10;86.00;;;;;;4957693;29;20231;-72
2023/06/24 15:20:34;;;;;;;2.00;1.30;;;28.20;87.50;;;;;;4957803;29;20210;-73
2023/06/24 15:23:01;;;;;;;1.35;1.00;;;28.00;83.90;;;;;;4957968;29;20218;-73
2023/06/24 15:25:28;;;;;;;1.20;1.10;;;28.10;87.20;;;;;;4957696;29;20259;-73
2023/06/24 15:27:55;;;;;;;1.60;1.10;;;28.20;85.80;;;;;;4957808;29;20212;-73
2023/06/24 15:30:22;;;;;;;1.70;1.17;;;28.10;84.80;;;;;;4957559;29;20216;-73
2023/06/24 15:32:50;;;;;;;2.53;1.40;;;28.10;85.50;;;;;;4957471;29;20572;-73
2023/06/24 15:35:16;;;;;;;2.95;1.42;;;28.10;84.90;;;;;;4957650;29;20232;-73
2023/06/24 15:37:43;;;;;;;1.80;1.10;;;28.10;86.00;;;;;;4957683;29;20651;-73
2023/06/24 15:40:11;;;;;;;1.38;1.05;;;28.30;85.10;;;;;;4957382;29;20291;-73
2023/06/24 15:42:38;;;;;;;3.65;1.40;;;28.50;85.50;;;;;;4957252;29;20212;-73
2023/06/24 15:45:05;;;;;;;4.47;1.45;;;28.60;88.60;;;;;;4957411;29;20219;-73
2023/06/24 15:47:32;;;;;;;4.10;1.40;;;28.70;86.70;;;;;;4957241;29;20240;-73
2023/06/24 15:50:00;;;;;;;2.85;1.30;;;28.60;85.50;;;;;;4957294;29;20208;-73
2023/06/24 15:52:27;;;;;;;3.50;1.20;;;28.50;86.10;;;;;;4957097;29;20231;-73
2023/06/24 15:54:54;;;;;;;2.35;1.50;;;28.50;85.20;;;;;;4957017;29;20204;-73
2023/06/24 15:57:21;;;;;;;2.50;1.35;;;28.50;84.80;;;;;;4957312;29;20208;-73
2023/06/24 15:59:48;;;;;;;1.88;1.35;;;28.70;85.00;;;;;;4957146;29;20674;-73
2023/06/24 16:02:15;;;;;;;1.65;1.30;;;28.70;84.80;;;;;;4957198;28;20267;-73
2023/06/24 16:04:42;;;;;;;1.85;1.30;;;28.50;85.20;;;;;;4957248;29;20224;-73
2023/06/24 16:07:10;;;;;;;1.25;1.05;;;28.20;85.00;;;;;;4957154;29;20583;-73
2023/06/24 16:09:37;;;;;;;2.30;1.85;;;28.40;86.30;;;;;;4957029;29;20224;-73
2023/06/24 16:12:04;;;;;;;1.83;1.20;;;28.50;85.60;;;;;;4956857;29;20615;-73
2023/06/24 16:14:30;;;;;;;2.40;1.05;;;28.50;87.70;;;;;;4956566;29;20240;-73
2023/06/24 16:16:57;;;;;;;1.67;1.30;;;28.50;85.30;;;;;;4956750;29;20228;-73
2023/06/24 16:19:24;;;;;;;1.60;1.17;;;28.70;85.90;;;;;;4956895;29;20231;-73
2023/06/24 16:21:51;;;;;;;2.63;1.40;;;28.70;84.50;;;;;;4956994;29;20212;-73
2023/06/24 16:24:19;;;;;;;3.60;1.20;;;28.90;85.00;;;;;;4956501;29;20278;-73
2023/06/24 16:26:46;;;;;;;1.63;1.13;;;28.90;85.40;;;;;;4956633;29;20232;-73
2023/06/24 16:29:12;;;;;;;1.92;1.45;;;28.90;84.90;;;;;;4956437;29;20294;-73
2023/06/24 16:31:39;;;;;;;1.42;1.20;;;28.60;84.80;;;;;;4956669;29;20208;-73
2023/06/24 16:34:07;;;;;;;1.75;1.25;;;28.60;84.90;;;;;;4956474;29;20242;-72
2023/06/24 16:36:34;;;;;;;5.60;1.63;;;28.60;86.70;;;;;;4956354;29;20699;-73
2023/06/24 16:39:01;;;;;;;2.47;1.42;;;28.60;86.20;;;;;;4956489;29;20208;-73
2023/06/24 16:41:29;;;;;;;2.55;1.35;;;28.50;85.70;;;;;;4956041;29;20204;-72
2023/06/24 16:43:56;;;;;;;2.00;1.23;;;28.50;84.00;;;;;;4956155;29;20659;-73
2023/06/24 16:46:22;;;;;;;1.73;1.20;;;28.60;84.20;;;;;;4956424;29;20323;-73
2023/06/24 16:48:49;;;;;;;1.63;1.10;;;28.60;86.60;;;;;;4956416;29;20207;-73
2023/06/24 16:51:16;;;;;;;3.22;1.20;;;28.30;86.30;;;;;;4956423;29;20626;-73
2023/06/24 16:53:43;;;;;;;1.38;1.08;;;28.10;87.80;;;;;;4956195;29;20249;-73
2023/06/24 16:56:10;;;;;;;2.08;1.27;;;28.10;87.10;;;;;;4955728;29;20262;-73
2023/06/24 16:58:38;;;;;;;2.28;1.50;;;28.00;85.90;;;;;;4956172;29;20214;-73
2023/06/24 17:01:05;;;;;;;2.22;1.48;;;27.90;86.00;;;;;;4956110;29;20208;-73
2023/06/24 17:03:32;;;;;;;1.48;1.20;;;27.90;86.90;;;;;;4956137;29;20207;-73
2023/06/24 17:05:58;;;;;;;2.63;1.25;;;27.90;86.60;;;;;;4955668;29;20228;-73
2023/06/24 17:08:25;;;;;;;1.48;1.05;;;27.90;88.20;;;;;;4955728;29;20242;-73
2023/06/24 17:10:52;;;;;;;1.95;1.10;;;28.20;86.00;;;;;;4955693;29;20218;-73
2023/06/24 17:13:19;;;;;;;1.65;1.10;;;28.10;86.00;;;;;;4954904;28;20236;-73
2023/06/24 17:15:47;;;;;;;2.90;1.40;;;28.00;87.50;;;;;;4955546;29;20228;-72
2023/06/24 17:18:14;;;;;;;1.85;1.20;;;27.70;86.50;;;;;;4955731;29;20216;-73
2023/06/24 17:20:41;;;;;;;1.58;1.00;;;27.70;88.30;;;;;;4955430;29;20302;-73
2023/06/24 17:23:08;;;;;;;1.58;1.00;;;27.50;87.70;;;;;;4955530;29;20259;-73
2023/06/24 17:25:35;;;;;;;2.58;1.10;;;27.40;88.80;;;;;;4955472;29;20228;-73
2023/06/24 17:28:02;;;;;;;1.90;0.95;;;27.40;89.20;;;;;;4955681;29;20300;-73
2023/06/24 17:30:28;;;;;;;2.20;1.20;;;27.50;88.10;;;;;;4955736;29;20315;-73
2023/06/24 17:32:57;;;;;;;1.30;0.90;;;27.70;87.80;;;;;;4955454;29;20204;-72
2023/06/24 17:35:23;;;;;;;3.60;1.17;;;27.90;86.60;;;;;;4955305;29;20238;-73
2023/06/24 17:37:50;;;;;;;1.05;0.95;;;27.80;87.60;;;;;;4955160;29;20671;-73
2023/06/24 17:40:17;;;;;;;1.67;1.10;;;27.80;88.20;;;;;;4955437;29;20214;-73
2023/06/24 17:42:45;;;;;;;1.25;1.02;;;27.80;87.70;;;;;;4955482;29;20267;-73
2023/06/24 17:45:11;;;;;;;2.33;1.30;;;27.80;87.40;;;;;;4955150;29;20679;-73
2023/06/24 17:47:38;;;;;;;1.80;1.08;;;27.70;88.20;;;;;;4954830;29;20219;-73
2023/06/24 17:50:07;;;;;;;1.20;1.00;;;27.50;88.10;;;;;;4955060;29;20212;-72
2023/06/24 17:52:34;;;;;;;1.70;1.25;;;27.60;88.40;;;;;;4955405;29;20212;-73
2023/06/24 17:55:01;;;;;;;2.65;1.10;;;27.50;88.70;;;;;;4955013;29;20239;-73
2023/06/24 17:57:28;;;;;;;1.70;1.15;;;27.30;89.30;;;;;;4955065;29;20254;-73
2023/06/24 17:59:55;;;;;;;2.30;1.00;;;27.30;89.10;;;;;;4955062;29;20294;-73
2023/06/24 18:02:22;;;;;;;2.58;1.25;;;27.30;89.50;;;;;;4954828;29;20212;-73
2023/06/24 18:04:48;;;;;;;1.52;1.10;;;27.30;88.60;;;;;;4954756;29;20671;-72
2023/06/24 18:07:16;;;;;;;1.98;1.13;;;27.30;89.20;;;;;;4955207;29;20211;-72
2023/06/24 18:09:43;;;;;;;2.60;0.88;;;27.40;90.10;;;;;;4955350;29;20220;-73
2023/06/24 18:12:10;;;;;;;1.85;1.20;;;27.20;89.90;;;;;;4954897;29;20208;-72
2023/06/24 18:14:37;;;;;;;2.10;0.98;;;27.30;89.50;;;;;;4954749;29;20242;-72
2023/06/24 18:17:04;;;;;;;1.83;1.20;;;27.50;89.40;;;;;;4954772;29;20227;-73
2023/06/24 18:19:31;;;;;;;1.77;1.20;;;27.50;89.10;;;;;;4954798;29;20207;-73
2023/06/24 18:22:00;;;;;;;2.13;1.27;;;27.60;87.80;;;;;;4955237;29;20212;-73
2023/06/24 18:24:28;;;;;;;3.08;1.20;;;27.50;89.40;;;;;;4955711;28;20214;-72
2023/06/24 18:26:55;;;;;;;2.10;1.20;;;27.30;90.00;;;;;;4958461;29;20586;-73
2023/06/24 18:29:22;;;;;;;1.35;1.00;;;27.20;89.30;;;;;;4958853;29;20215;-73
2023/06/24 18:31:49;;;;;;;1.95;1.20;;;27.30;89.20;;;;;;4958830;29;20216;-73
2023/06/24 18:34:15;;;;;;;1.88;1.20;;;27.50;89.60;;;;;;4959154;29;20243;-72
2023/06/24 18:36:42;;;;;;;2.38;1.27;;;27.50;90.00;;;;;;4958853;29;20231;-72
2023/06/24 18:39:10;;;;;;;2.95;0.90;;;27.30;88.90;;;;;;4958665;29;20298;-72
2023/06/24 18:41:38;;;;;;;1.20;0.80;;;27.00;88.80;;;;;;4958358;29;20208;-72
2023/06/24 18:44:05;;;;;;;2.38;1.30;;;27.00;89.20;;;;;;4958652;29;20212;-73
2023/06/24 18:46:32;;;;;;;3.88;1.15;;;26.80;89.60;;;;;;4958214;29;20232;-73
2023/06/24 18:48:59;;;;;;;1.73;1.25;;;26.80;90.20;;;;;;4958482;29;20212;-73
2023/06/24 18:51:26;;;;;;;1.73;1.05;;;26.70;89.90;;;;;;4958028;29;20655;-73
2023/06/24 18:53:52;;;;;;;1.80;1.10;;;26.80;90.20;;;;;;4949203;29;20250;-73
2023/06/24 18:56:19;;;;;;;4.03;1.02;;;26.80;90.50;;;;;;4952504;29;20275;-73